createdAt,value
2018-07-03T00:00:10.684Z,62.56
2018-07-03T00:01:10.707Z,63.05
2018-07-03T00:02:10.612Z,62.63
2018-07-03T00:03:10.626Z,62.47
2018-07-03T00:04:10.635Z,62.34
2018-07-03T00:05:10.613Z,62.85
2018-07-03T00:06:10.633Z,62.08
2018-07-03T00:07:10.573Z,62.37
2018-07-03T00:08:10.541Z,62.92
2018-07-03T00:09:10.583Z,63.4
2018-07-03T00:10:10.596Z,63.21
2018-07-03T00:11:10.570Z,63.53
2018-07-03T00:12:10.562Z,63.34
2018-07-03T00:13:10.576Z,63.24
2018-07-03T00:14:10.574Z,62.95
2018-07-03T00:15:10.548Z,62.18
2018-07-03T00:16:10.580Z,62.18
2018-07-03T00:17:10.569Z,62.44
2018-07-03T00:18:10.608Z,62.34
2018-07-03T00:19:10.590Z,62.05
2018-07-03T00:20:10.585Z,62.05
2018-07-03T00:21:10.589Z,62.05
2018-07-03T00:22:10.587Z,62.24
2018-07-03T00:23:10.607Z,62.08
2018-07-03T00:24:10.605Z,62.44
2018-07-03T00:25:10.582Z,62.34
2018-07-03T00:26:10.685Z,62.18
2018-07-03T00:27:10.681Z,62.47
2018-07-03T00:28:10.697Z,62.47
2018-07-03T00:29:10.669Z,62.34
2018-07-03T00:30:10.647Z,62.76
2018-07-03T00:31:10.685Z,62.73
2018-07-03T00:32:10.754Z,63.11
2018-07-03T00:33:10.691Z,63.53
2018-07-03T00:34:10.661Z,63.11
2018-07-03T00:35:10.682Z,63.05
2018-07-03T00:36:10.688Z,62.44
2018-07-03T00:37:10.667Z,62.85
2018-07-03T00:38:10.664Z,62.47
2018-07-03T00:39:10.693Z,62.34
2018-07-03T00:40:10.672Z,62.56
2018-07-03T00:41:10.706Z,62.15
2018-07-03T00:42:10.685Z,62.05
2018-07-03T00:43:10.683Z,62.27
2018-07-03T00:44:10.688Z,62.27
2018-07-03T00:45:10.667Z,62.56
2018-07-03T00:46:10.713Z,62.76
2018-07-03T00:47:10.710Z,63.05
2018-07-03T00:48:10.706Z,62.73
2018-07-03T00:49:10.758Z,62.66
2018-07-03T00:50:10.663Z,62.76
2018-07-03T00:51:10.740Z,62.63
2018-07-03T00:52:10.715Z,62.95
2018-07-03T00:53:10.706Z,62.63
2018-07-03T00:54:10.741Z,62.92
2018-07-03T00:55:10.722Z,63.02
2018-07-03T00:56:10.712Z,62.92
2018-07-03T00:57:10.721Z,62.66
2018-07-03T00:58:10.740Z,62.76
2018-07-03T00:59:10.726Z,62.34
2018-07-03T01:00:10.713Z,62.92
2018-07-03T01:01:10.734Z,62.92
2018-07-03T01:02:10.740Z,62.66
2018-07-03T01:03:10.735Z,62.82
2018-07-03T01:04:10.739Z,62.24
2018-07-03T01:05:10.707Z,62.53
2018-07-03T01:06:10.714Z,62.63
2018-07-03T01:07:10.762Z,62.24
2018-07-03T01:08:10.770Z,62.44
2018-07-03T01:09:10.756Z,62.66
2018-07-03T01:10:10.744Z,63.24
2018-07-03T01:12:31.772Z,63.31
2018-07-03T01:19:12.087Z,63.14
2018-07-03T01:20:12.086Z,63.11
2018-07-03T01:21:12.045Z,63.11
2018-07-03T01:22:12.054Z,63.21
2018-07-03T01:23:12.059Z,63.5
2018-07-03T01:24:12.087Z,63.11
2018-07-03T01:25:12.073Z,63.69
2018-07-03T01:26:12.083Z,63.69
2018-07-03T01:27:12.040Z,63.69
2018-07-03T01:28:12.067Z,63.05
2018-07-03T01:29:12.094Z,62.95
2018-07-03T01:30:12.093Z,62.73
2018-07-03T01:31:12.071Z,62.76
2018-07-03T01:32:12.100Z,63.21
2018-07-03T01:33:12.080Z,62.53
2018-07-03T01:34:12.093Z,62.34
2018-07-03T01:35:12.083Z,62.34
2018-07-03T01:36:12.165Z,62.44
2018-07-03T01:37:12.073Z,62.24
2018-07-03T01:38:12.050Z,62.44
2018-07-03T01:39:12.084Z,62.24
2018-07-03T01:40:12.074Z,63.11
2018-07-03T01:41:12.105Z,62.92
2018-07-03T01:42:12.129Z,62.82
2018-07-03T01:43:12.115Z,62.73
2018-07-03T01:44:12.088Z,62.53
2018-07-03T01:45:12.124Z,62.73
2018-07-03T01:46:12.130Z,63.31
2018-07-03T01:47:12.125Z,63.21
2018-07-03T01:48:12.092Z,63.4
2018-07-03T01:49:12.126Z,62.63
2018-07-03T01:50:12.100Z,62.92
2018-07-03T01:51:12.109Z,62.92
2018-07-03T01:52:12.091Z,62.53
2018-07-03T01:53:12.111Z,62.73
2018-07-03T01:54:12.120Z,63.02
2018-07-03T01:55:12.125Z,62.63
2018-07-03T01:56:12.098Z,62.73
2018-07-03T01:57:12.131Z,62.73
2018-07-03T01:58:12.106Z,62.73
2018-07-03T01:59:12.136Z,62.34
2018-07-03T02:00:12.093Z,62.73
2018-07-03T02:01:12.111Z,62.63
2018-07-03T02:02:12.139Z,62.73
2018-07-03T02:03:12.114Z,62.53
2018-07-03T02:04:12.103Z,62.44
2018-07-03T02:05:12.112Z,62.73
2018-07-03T02:06:12.100Z,62.44
2018-07-03T02:07:12.108Z,62.63
2018-07-03T02:08:12.148Z,62.63
2018-07-03T02:09:12.138Z,62.44
2018-07-03T02:10:12.120Z,62.44
2018-07-03T02:11:12.151Z,62.44
2018-07-03T02:12:12.133Z,62.34
2018-07-03T02:13:12.173Z,62.53
2018-07-03T02:14:12.145Z,62.44
2018-07-03T02:15:12.176Z,62.34
2018-07-03T02:16:12.182Z,62.44
2018-07-03T02:17:12.170Z,62.44
2018-07-03T02:18:12.529Z,62.05
2018-07-03T02:19:12.168Z,62.63
2018-07-03T02:20:12.148Z,62.44
2018-07-03T02:21:12.187Z,62.63
2018-07-03T02:22:12.173Z,62.53
2018-07-03T02:23:12.146Z,62.63
2018-07-03T02:24:12.160Z,62.82
2018-07-03T02:25:12.180Z,63.11
2018-07-03T02:26:12.170Z,63.79
2018-07-03T02:27:12.177Z,63.79
2018-07-03T02:28:12.251Z,63.6
2018-07-03T02:29:12.175Z,63.4
2018-07-03T02:30:12.173Z,63.21
2018-07-03T02:31:12.179Z,63.11
2018-07-03T02:32:12.195Z,63.11
2018-07-03T02:33:12.214Z,63.4
2018-07-03T02:34:12.169Z,63.21
2018-07-03T02:35:12.207Z,63.11
2018-07-03T02:36:12.218Z,63.11
2018-07-03T02:37:12.184Z,63.11
2018-07-03T02:38:12.199Z,62.82
2018-07-03T02:39:12.254Z,62.82
2018-07-03T02:40:12.218Z,63.11
2018-07-03T02:41:12.205Z,63.21
2018-07-03T02:42:12.186Z,63.21
2018-07-03T02:43:12.209Z,63.21
2018-07-03T02:44:12.212Z,63.5
2018-07-03T02:45:12.178Z,63.02
2018-07-03T02:46:12.229Z,63.11
2018-07-03T02:47:13.560Z,63.21
2018-07-03T02:48:12.741Z,63.4
2018-07-03T02:49:12.324Z,63.21
2018-07-03T02:50:12.351Z,63.21
2018-07-03T02:51:12.210Z,63.21
2018-07-03T02:52:12.237Z,63.21
2018-07-03T02:53:12.203Z,63.11
2018-07-03T02:54:12.231Z,63.21
2018-07-03T02:55:12.233Z,63.5
2018-07-03T02:56:12.247Z,63.21
2018-07-03T02:57:12.233Z,63.11
2018-07-03T02:58:29.421Z,63.11
2018-07-03T02:59:29.405Z,63.21
2018-07-03T03:00:29.442Z,63.31
2018-07-03T03:01:29.452Z,63.89
2018-07-03T03:02:29.399Z,63.79
2018-07-03T03:03:29.455Z,63.79
2018-07-03T03:04:29.457Z,63.31
2018-07-03T03:05:29.415Z,63.11
2018-07-03T03:06:29.429Z,63.31
2018-07-03T03:07:29.400Z,63.21
2018-07-03T03:08:29.459Z,63.11
2018-07-03T03:09:29.435Z,63.02
2018-07-03T03:10:29.419Z,62.82
2018-07-03T03:11:29.492Z,63.02
2018-07-03T03:12:29.409Z,63.21
2018-07-03T03:13:29.427Z,63.4
2018-07-03T03:14:29.474Z,63.31
2018-07-03T03:15:29.426Z,62.92
2018-07-03T03:16:29.435Z,63.21
2018-07-03T03:17:29.412Z,63.02
2018-07-03T03:18:29.447Z,63.02
2018-07-03T03:19:29.480Z,62.63
2018-07-03T03:20:29.448Z,62.92
2018-07-03T03:21:29.509Z,62.92
2018-07-03T03:22:29.453Z,62.63
2018-07-03T03:23:29.785Z,62.63
2018-07-03T03:24:29.445Z,62.63
2018-07-03T03:25:29.503Z,63.02
2018-07-03T03:26:29.476Z,62.34
2018-07-03T03:27:29.484Z,62.44
2018-07-03T03:28:29.437Z,62.82
2018-07-03T03:29:29.481Z,62.73
2018-07-03T03:30:29.475Z,62.53
2018-07-03T03:31:29.509Z,62.44
2018-07-03T03:32:29.525Z,62.63
2018-07-03T03:33:29.518Z,62.63
2018-07-03T03:34:29.525Z,62.53
2018-07-03T03:35:29.514Z,63.11
2018-07-03T03:36:29.499Z,63.69
2018-07-03T03:37:29.493Z,63.21
2018-07-03T03:38:29.466Z,63.21
2018-07-03T03:39:29.480Z,62.82
2018-07-03T03:40:29.463Z,62.63
2018-07-03T03:41:29.493Z,62.82
2018-07-03T03:42:29.517Z,63.11
2018-07-03T03:43:29.491Z,63.79
2018-07-03T03:44:29.555Z,63.69
2018-07-03T03:45:29.497Z,63.79
2018-07-03T03:46:29.539Z,63.89
2018-07-03T03:47:29.492Z,63.69
2018-07-03T03:48:29.553Z,63.98
2018-07-03T03:49:29.516Z,63.89
2018-07-03T03:50:29.588Z,63.69
2018-07-03T03:51:29.540Z,63.21
2018-07-03T03:52:29.566Z,63.21
2018-07-03T03:53:29.864Z,63.69
2018-07-03T03:54:29.583Z,63.89
2018-07-03T03:55:29.519Z,63.6
2018-07-03T03:56:29.575Z,63.5
2018-07-03T03:57:29.523Z,63.11
2018-07-03T03:58:29.545Z,63.21
2018-07-03T03:59:29.520Z,62.92
2018-07-03T04:00:29.535Z,62.63
2018-07-03T04:01:29.560Z,62.73
2018-07-03T04:02:29.568Z,62.34
2018-07-03T04:03:29.562Z,62.44
2018-07-03T04:04:29.542Z,62.63
2018-07-03T04:05:29.522Z,63.02
2018-07-03T04:06:29.544Z,63.02
2018-07-03T04:07:29.640Z,63.21
2018-07-03T04:08:29.550Z,63.02
2018-07-03T04:09:29.561Z,63.4
2018-07-03T04:10:29.562Z,62.53
2018-07-03T04:11:29.610Z,62.44
2018-07-03T04:12:29.578Z,63.11
2018-07-03T04:13:29.584Z,62.92
2018-07-03T04:14:29.556Z,63.31
2018-07-03T04:15:29.584Z,63.02
2018-07-03T04:16:29.572Z,63.21
2018-07-03T04:17:29.589Z,63.69
2018-07-03T04:18:29.556Z,63.6
2018-07-03T04:19:29.551Z,63.4
2018-07-03T04:20:29.555Z,63.6
2018-07-03T04:21:29.565Z,63.5
2018-07-03T04:22:29.596Z,63.6
2018-07-03T04:23:29.574Z,63.6
2018-07-03T04:24:29.585Z,63.6
2018-07-03T04:25:29.626Z,63.02
2018-07-03T04:26:29.587Z,63.98
2018-07-03T04:27:29.654Z,63.79
2018-07-03T04:28:29.641Z,64.08
2018-07-03T04:29:29.623Z,63.98
2018-07-03T04:30:29.565Z,63.69
2018-07-03T04:31:29.627Z,63.69
2018-07-03T04:32:29.601Z,63.69
2018-07-03T04:33:29.610Z,64.18
2018-07-03T04:34:29.619Z,64.08
2018-07-03T04:35:29.577Z,64.08
2018-07-03T04:36:29.589Z,64.08
2018-07-03T04:37:29.610Z,64.27
2018-07-03T04:38:29.601Z,64.08
2018-07-03T04:39:29.621Z,64.31
2018-07-03T04:40:29.571Z,64.27
2018-07-03T04:41:29.701Z,64.66
2018-07-03T04:42:29.599Z,65.05
2018-07-03T04:43:29.603Z,64.56
2018-07-03T04:44:29.653Z,64.95
2018-07-03T04:45:29.618Z,65.24
2018-07-03T04:46:29.600Z,65.05
2018-07-03T04:47:29.630Z,64.95
2018-07-03T04:48:29.610Z,65.05
2018-07-03T04:49:29.569Z,64.76
2018-07-03T04:50:29.618Z,64.95
2018-07-03T04:51:29.599Z,64.76
2018-07-03T04:52:29.652Z,64.27
2018-07-03T04:53:29.740Z,64.76
2018-07-03T04:54:29.701Z,64.27
2018-07-03T04:55:29.630Z,64.47
2018-07-03T04:56:29.651Z,64.5
2018-07-03T04:57:29.630Z,64.47
2018-07-03T04:58:29.643Z,64.69
2018-07-03T04:59:29.619Z,64.27
2018-07-03T05:00:29.630Z,64.27
2018-07-03T05:01:29.658Z,64.18
2018-07-03T05:02:29.673Z,64.11
2018-07-03T05:03:29.674Z,64.01
2018-07-03T05:04:29.732Z,63.82
2018-07-03T05:05:29.723Z,64.01
2018-07-03T05:06:29.662Z,63.73
2018-07-03T05:07:29.708Z,63.82
2018-07-03T05:08:29.673Z,63.63
2018-07-03T05:09:29.645Z,63.92
2018-07-03T05:10:30.898Z,64.11
2018-07-03T05:11:29.684Z,63.82
2018-07-03T05:12:29.707Z,63.92
2018-07-03T05:13:29.644Z,64.01
2018-07-03T05:14:29.695Z,63.63
2018-07-03T05:15:29.673Z,63.82
2018-07-03T05:16:29.686Z,63.92
2018-07-03T05:17:29.829Z,63.63
2018-07-03T05:18:29.677Z,63.73
2018-07-03T05:19:29.696Z,63.92
2018-07-03T05:20:29.744Z,63.82
2018-07-03T05:21:29.752Z,63.73
2018-07-03T05:22:30.376Z,63.82
2018-07-03T05:23:29.695Z,63.73
2018-07-03T05:24:29.691Z,63.73
2018-07-03T05:25:29.708Z,64.01
2018-07-03T05:26:29.682Z,63.73
2018-07-03T05:27:29.693Z,63.63
2018-07-03T05:28:29.927Z,63.73
2018-07-03T05:29:29.705Z,63.73
2018-07-03T05:30:30.384Z,64.01
2018-07-03T05:31:29.792Z,63.73
2018-07-03T05:32:29.724Z,63.63
2018-07-03T05:33:29.686Z,63.63
2018-07-03T05:34:29.691Z,63.63
2018-07-03T05:35:29.671Z,63.63
2018-07-03T05:36:29.733Z,63.82
2018-07-03T05:37:29.752Z,63.63
2018-07-03T05:38:29.691Z,63.63
2018-07-03T05:39:29.715Z,63.82
2018-07-03T05:40:29.674Z,63.73
2018-07-03T05:41:29.675Z,64.11
2018-07-03T05:42:29.690Z,63.73
2018-07-03T05:43:29.691Z,63.82
2018-07-03T05:44:29.694Z,63.73
2018-07-03T05:45:29.702Z,63.73
2018-07-03T05:46:29.721Z,63.73
2018-07-03T05:47:29.777Z,63.53
2018-07-03T05:48:29.715Z,63.53
2018-07-03T05:49:29.792Z,63.73
2018-07-03T05:50:29.722Z,63.53
2018-07-03T05:51:29.730Z,63.53
2018-07-03T05:52:29.738Z,63.63
2018-07-03T05:53:29.714Z,63.73
2018-07-03T05:54:29.710Z,63.53
2018-07-03T05:55:29.759Z,63.53
2018-07-03T05:56:29.828Z,63.53
2018-07-03T05:57:29.741Z,63.63
2018-07-03T05:58:29.733Z,63.63
2018-07-03T05:59:31.137Z,63.63
2018-07-03T06:00:29.766Z,63.63
2018-07-03T06:01:29.770Z,63.63
2018-07-03T06:02:29.747Z,63.63
2018-07-03T06:04:34.252Z,63.82
2018-07-03T06:04:46.955Z,64.01
2018-07-03T06:05:47.265Z,63.92
2018-07-03T06:06:46.911Z,63.82
2018-07-03T06:07:46.934Z,63.82
2018-07-03T06:08:46.897Z,63.92
2018-07-03T06:09:46.964Z,63.92
2018-07-03T06:10:46.933Z,63.92
2018-07-03T06:11:46.933Z,63.92
2018-07-03T06:12:46.971Z,63.92
2018-07-03T06:13:46.921Z,63.82
2018-07-03T06:14:47.061Z,64.01
2018-07-03T06:15:46.933Z,63.73
2018-07-03T06:16:46.926Z,63.92
2018-07-03T06:17:46.949Z,63.73
2018-07-03T06:18:46.943Z,63.82
2018-07-03T06:19:46.908Z,63.82
2018-07-03T06:20:47.006Z,64.11
2018-07-03T06:21:46.999Z,63.82
2018-07-03T06:22:47.050Z,63.92
2018-07-03T06:23:46.974Z,64.31
2018-07-03T06:24:46.996Z,63.82
2018-07-03T06:25:46.962Z,64.31
2018-07-03T06:26:46.954Z,64.4
2018-07-03T06:27:46.961Z,64.4
2018-07-03T06:28:47.068Z,64.18
2018-07-03T06:29:47.431Z,64.11
2018-07-03T06:30:46.939Z,63.92
2018-07-03T06:31:46.989Z,64.11
2018-07-03T06:32:46.939Z,63.89
2018-07-03T06:33:47.042Z,64.01
2018-07-03T06:34:46.992Z,64.31
2018-07-03T06:35:46.998Z,64.01
2018-07-03T06:36:47.020Z,64.08
2018-07-03T06:37:46.974Z,64.11
2018-07-03T06:38:46.981Z,64.21
2018-07-03T06:39:46.996Z,64.01
2018-07-03T06:40:47.020Z,64.21
2018-07-03T06:41:46.986Z,63.98
2018-07-03T06:42:46.978Z,64.21
2018-07-03T06:43:47.020Z,64.21
2018-07-03T06:44:47.156Z,64.21
2018-07-03T06:45:46.984Z,64.21
2018-07-03T06:46:47.659Z,64.21
2018-07-03T06:47:46.967Z,64.18
2018-07-03T06:48:47.039Z,64.18
2018-07-03T06:49:46.987Z,64.31
2018-07-03T06:50:47.026Z,64.31
2018-07-03T06:51:47.125Z,64.37
2018-07-03T06:52:47.063Z,64.18
2018-07-03T06:53:46.987Z,64.27
2018-07-03T06:54:47.010Z,64.31
2018-07-03T06:55:46.995Z,64.21
2018-07-03T06:56:47.996Z,64.01
2018-07-03T06:57:47.052Z,64.18
2018-07-03T06:58:47.013Z,64.11
2018-07-03T06:59:47.036Z,64.11
2018-07-03T07:00:47.026Z,64.11
2018-07-03T07:01:47.020Z,63.92
2018-07-03T07:02:47.021Z,64.21
2018-07-03T07:03:47.033Z,64.01
2018-07-03T07:04:49.365Z,63.98
2018-07-03T07:05:47.022Z,64.01
2018-07-03T07:06:46.996Z,64.01
2018-07-03T07:07:47.054Z,64.01
2018-07-03T07:08:47.182Z,64.08
2018-07-03T07:09:47.002Z,64.08
2018-07-03T07:10:47.049Z,64.18
2018-07-03T07:11:47.015Z,64.08
2018-07-03T07:12:47.026Z,64.31
2018-07-03T07:13:47.069Z,64.31
2018-07-03T07:14:47.041Z,64.11
2018-07-03T07:15:47.021Z,64.4
2018-07-03T07:16:47.025Z,64.27
2018-07-03T07:17:47.044Z,64.4
2018-07-03T07:18:47.023Z,64.27
2018-07-03T07:19:47.030Z,64.47
2018-07-03T07:20:47.035Z,64.27
2018-07-03T07:21:47.006Z,64.59
2018-07-03T07:22:47.065Z,64.69
2018-07-03T07:23:47.056Z,64.59
2018-07-03T07:24:47.025Z,64.59
2018-07-03T07:25:47.045Z,64.66
2018-07-03T07:26:47.064Z,64.76
2018-07-03T07:27:47.061Z,64.56
2018-07-03T07:28:47.089Z,64.69
2018-07-03T07:29:47.043Z,64.59
2018-07-03T07:30:47.066Z,64.66
2018-07-03T07:31:47.109Z,64.59
2018-07-03T07:32:47.084Z,64.59
2018-07-03T07:33:47.103Z,64.66
2018-07-03T07:34:47.061Z,64.47
2018-07-03T07:35:47.045Z,64.69
2018-07-03T07:36:47.065Z,64.76
2018-07-03T07:37:47.124Z,64.69
2018-07-03T07:38:47.073Z,64.37
2018-07-03T07:39:47.085Z,64.5
2018-07-03T07:40:47.049Z,64.37
2018-07-03T07:41:47.073Z,64.69
2018-07-03T07:42:47.223Z,64.59
2018-07-03T07:43:47.195Z,64.47
2018-07-03T07:44:47.096Z,64.5
2018-07-03T07:45:47.091Z,64.37
2018-07-03T07:46:47.095Z,64.59
2018-07-03T07:47:47.127Z,64.37
2018-07-03T07:48:47.095Z,64.47
2018-07-03T07:49:47.124Z,64.47
2018-07-03T07:50:47.096Z,64.59
2018-07-03T07:51:47.140Z,64.5
2018-07-03T07:52:47.135Z,64.56
2018-07-03T07:53:47.084Z,64.56
2018-07-03T07:54:47.185Z,64.69
2018-07-03T07:55:47.084Z,64.5
2018-07-03T07:56:47.146Z,64.5
2018-07-03T07:57:47.173Z,64.56
2018-07-03T07:58:47.116Z,64.31
2018-07-03T07:59:47.137Z,64.56
2018-07-03T08:00:47.092Z,64.27
2018-07-03T08:01:47.083Z,64.27
2018-07-03T08:02:47.105Z,64.27
2018-07-03T08:03:47.395Z,64.31
2018-07-03T08:04:47.097Z,64.31
2018-07-03T08:05:47.097Z,64.37
2018-07-03T08:06:47.237Z,64.5
2018-07-03T08:09:09.019Z,64.47
2018-07-03T08:10:14.403Z,64.47
2018-07-03T08:11:13.730Z,64.47
2018-07-03T08:11:58.617Z,64.27
2018-07-03T08:12:58.740Z,64.31
2018-07-03T08:13:58.736Z,64.37
2018-07-03T08:14:59.094Z,64.31
2018-07-03T08:15:58.713Z,64.27
2018-07-03T08:16:58.750Z,64.56
2018-07-03T08:17:58.775Z,64.37
2018-07-03T08:18:58.792Z,64.4
2018-07-03T08:19:58.704Z,64.37
2018-07-03T08:20:58.705Z,64.47
2018-07-03T08:21:58.716Z,64.47
2018-07-03T08:22:58.719Z,64.66
2018-07-03T08:23:58.775Z,64.66
2018-07-03T08:24:58.735Z,64.5
2018-07-03T08:25:58.734Z,64.66
2018-07-03T08:26:58.768Z,64.66
2018-07-03T08:27:58.722Z,64.37
2018-07-03T08:28:58.731Z,64.66
2018-07-03T08:29:58.751Z,64.59
2018-07-03T08:30:58.742Z,64.66
2018-07-03T08:31:58.751Z,64.5
2018-07-03T08:32:58.775Z,64.56
2018-07-03T08:33:58.812Z,64.47
2018-07-03T08:34:58.745Z,64.37
2018-07-03T08:35:58.770Z,64.56
2018-07-03T08:36:58.746Z,64.47
2018-07-03T08:37:58.767Z,64.69
2018-07-03T08:38:58.743Z,64.47
2018-07-03T08:39:58.788Z,64.66
2018-07-03T08:40:58.760Z,64.56
2018-07-03T08:41:58.764Z,64.66
2018-07-03T08:42:58.902Z,64.76
2018-07-03T08:43:58.757Z,64.5
2018-07-03T08:44:58.766Z,64.79
2018-07-03T08:45:58.829Z,64.56
2018-07-03T08:46:58.796Z,64.76
2018-07-03T08:47:58.775Z,64.56
2018-07-03T08:48:58.797Z,64.69
2018-07-03T08:49:58.780Z,64.76
2018-07-03T08:50:58.787Z,64.59
2018-07-03T08:51:58.897Z,64.76
2018-07-03T08:52:58.802Z,64.79
2018-07-03T08:53:58.788Z,64.85
2018-07-03T08:54:58.842Z,64.56
2018-07-03T08:55:58.805Z,64.5
2018-07-03T08:56:58.846Z,64.56
2018-07-03T08:57:58.792Z,64.66
2018-07-03T08:58:58.782Z,64.69
2018-07-03T08:59:58.786Z,64.56
2018-07-03T09:00:58.914Z,64.56
2018-07-03T09:01:58.841Z,64.69
2018-07-03T09:02:59.845Z,64.56
2018-07-03T09:03:58.845Z,64.66
2018-07-03T09:04:58.823Z,64.89
2018-07-03T09:05:58.866Z,64.76
2018-07-03T09:06:58.879Z,64.66
2018-07-03T09:07:58.796Z,64.59
2018-07-03T09:08:58.809Z,64.95
2018-07-03T09:09:58.812Z,65.05
2018-07-03T09:10:58.792Z,65.05
2018-07-03T09:11:58.884Z,64.95
2018-07-03T09:12:58.831Z,65.08
2018-07-03T09:13:58.837Z,64.95
2018-07-03T09:14:58.884Z,64.85
2018-07-03T09:15:58.845Z,64.89
2018-07-03T09:16:58.863Z,65.24
2018-07-03T09:17:58.941Z,65.24
2018-07-03T09:18:58.846Z,65.24
2018-07-03T09:19:58.841Z,64.98
2018-07-03T09:20:58.846Z,65.24
2018-07-03T09:21:58.820Z,64.76
2018-07-03T09:22:58.824Z,65.34
2018-07-03T09:23:58.869Z,65.24
2018-07-03T09:24:58.851Z,64.95
2018-07-03T09:25:58.814Z,65.24
2018-07-03T09:26:58.853Z,65.27
2018-07-03T09:27:58.841Z,65.34
2018-07-03T09:28:58.853Z,65.34
2018-07-03T09:29:58.880Z,65.27
2018-07-03T09:30:58.849Z,65.24
2018-07-03T09:31:58.913Z,65.14
2018-07-03T09:32:58.864Z,65.24
2018-07-03T09:33:58.832Z,65.34
2018-07-03T09:34:58.831Z,65.24
2018-07-03T09:35:58.836Z,65.24
2018-07-03T09:36:58.853Z,65.14
2018-07-03T09:37:58.889Z,65.05
2018-07-03T09:38:58.882Z,65.05
2018-07-03T09:39:58.881Z,65.34
2018-07-03T09:40:58.891Z,64.95
2018-07-03T09:41:58.886Z,65.08
2018-07-03T09:42:58.871Z,65.14
2018-07-03T09:43:58.869Z,65.08
2018-07-03T09:44:58.883Z,65.14
2018-07-03T09:46:01.361Z,64.89
2018-07-03T09:46:58.882Z,65.05
2018-07-03T09:47:58.891Z,65.14
2018-07-03T09:48:58.920Z,65.14
2018-07-03T09:49:58.901Z,65.14
2018-07-03T09:50:58.909Z,65.05
2018-07-03T09:52:00.378Z,65.17
2018-07-03T09:52:58.958Z,65.14
2018-07-03T09:53:58.913Z,65.14
2018-07-03T09:54:59.034Z,65.14
2018-07-03T09:55:58.912Z,64.95
2018-07-03T09:56:58.911Z,64.89
2018-07-03T09:57:58.890Z,65.17
2018-07-03T09:58:58.908Z,64.95
2018-07-03T09:59:58.919Z,65.05
2018-07-03T10:00:58.934Z,65.05
2018-07-03T10:01:59.034Z,65.08
2018-07-03T10:02:58.960Z,64.89
2018-07-03T10:03:58.926Z,65.08
2018-07-03T10:04:58.942Z,65.05
2018-07-03T10:05:58.929Z,64.95
2018-07-03T10:06:59.640Z,65.05
2018-07-03T10:07:58.995Z,64.98
2018-07-03T10:08:59.028Z,65.08
2018-07-03T10:09:58.965Z,64.95
2018-07-03T10:10:58.962Z,64.98
2018-07-03T10:11:58.946Z,64.98
2018-07-03T10:12:59.029Z,65.08
2018-07-03T10:13:58.994Z,65.05
2018-07-03T10:14:58.952Z,64.98
2018-07-03T10:15:59.375Z,64.98
2018-07-03T10:16:58.973Z,65.05
2018-07-03T10:17:58.962Z,65.08
2018-07-03T10:18:59.042Z,65.05
2018-07-03T10:19:58.956Z,64.85
2018-07-03T10:20:58.952Z,64.95
2018-07-03T10:21:59.089Z,65.05
2018-07-03T10:22:58.938Z,64.85
2018-07-03T10:23:58.993Z,64.76
2018-07-03T10:24:59.003Z,64.85
2018-07-03T10:25:58.981Z,64.85
2018-07-03T10:26:58.964Z,64.95
2018-07-03T10:27:58.986Z,65.14
2018-07-03T10:28:58.983Z,64.89
2018-07-03T10:29:59.004Z,64.98
2018-07-03T10:30:58.998Z,65.05
2018-07-03T10:31:58.974Z,64.85
2018-07-03T10:32:58.988Z,64.95
2018-07-03T10:33:59.057Z,65.05
2018-07-03T10:34:58.973Z,65.17
2018-07-03T10:35:58.977Z,64.85
2018-07-03T10:36:58.991Z,65.05
2018-07-03T10:37:59.019Z,65.08
2018-07-03T10:38:59.044Z,65.08
2018-07-03T10:39:59.033Z,65.05
2018-07-03T10:40:59.096Z,65.14
2018-07-03T10:41:59.517Z,65.14
2018-07-03T10:42:59.068Z,64.95
2018-07-03T10:43:58.993Z,64.85
2018-07-03T10:44:59.020Z,65.08
2018-07-03T10:45:59.064Z,65.08
2018-07-03T10:46:59.002Z,65.17
2018-07-03T10:47:59.031Z,64.98
2018-07-03T10:48:59.013Z,65.05
2018-07-03T10:49:59.023Z,65.05
2018-07-03T10:50:59.020Z,65.17
2018-07-03T10:51:59.009Z,64.95
2018-07-03T10:52:59.041Z,64.98
2018-07-03T10:53:59.012Z,65.05
2018-07-03T10:54:59.057Z,64.98
2018-07-03T10:55:58.998Z,65.17
2018-07-03T10:56:58.996Z,65.14
2018-07-03T10:57:59.055Z,65.08
2018-07-03T10:58:59.042Z,65.27
2018-07-03T10:59:59.037Z,64.95
2018-07-03T11:00:59.094Z,65.05
2018-07-03T11:01:58.998Z,65.14
2018-07-03T11:02:59.015Z,64.95
2018-07-03T11:03:59.076Z,64.95
2018-07-03T11:04:59.031Z,65.27
2018-07-03T11:05:59.716Z,65.08
2018-07-03T11:06:59.000Z,64.98
2018-07-03T11:07:59.051Z,65.27
2018-07-03T11:08:59.044Z,65.27
2018-07-03T11:09:59.024Z,65.24
2018-07-03T11:10:59.029Z,65.14
2018-07-03T11:11:59.053Z,64.95
2018-07-03T11:12:59.032Z,65.14
2018-07-03T11:13:59.176Z,65.14
2018-07-03T11:14:59.057Z,64.98
2018-07-03T11:15:59.063Z,64.98
2018-07-03T11:16:59.140Z,65.17
2018-07-03T11:17:59.052Z,64.95
2018-07-03T11:18:59.044Z,65.05
2018-07-03T11:19:59.249Z,64.85
2018-07-03T11:20:59.072Z,64.85
2018-07-03T11:21:59.042Z,64.95
2018-07-03T11:22:59.073Z,64.95
2018-07-03T11:23:59.051Z,64.89
2018-07-03T11:24:59.078Z,65.05
2018-07-03T11:25:59.095Z,65.14
2018-07-03T11:26:59.094Z,65.14
2018-07-03T11:27:59.180Z,64.98
2018-07-03T11:28:59.143Z,65.05
2018-07-03T11:29:59.032Z,65.05
2018-07-03T11:30:59.127Z,65.08
2018-07-03T11:31:59.122Z,64.89
2018-07-03T11:33:00.062Z,64.95
2018-07-03T11:33:59.094Z,64.89
2018-07-03T11:34:59.073Z,64.95
2018-07-03T11:35:59.098Z,64.95
2018-07-03T11:36:59.089Z,64.98
2018-07-03T11:37:59.144Z,64.95
2018-07-03T11:38:59.089Z,64.95
2018-07-03T11:39:59.133Z,64.85
2018-07-03T11:40:59.092Z,64.85
2018-07-03T11:41:59.100Z,65.08
2018-07-03T11:42:59.149Z,65.08
2018-07-03T11:43:59.108Z,64.85
2018-07-03T11:44:59.105Z,64.98
2018-07-03T11:45:59.121Z,64.85
2018-07-03T11:46:59.085Z,64.89
2018-07-03T11:47:59.102Z,64.89
2018-07-03T11:48:59.129Z,65.05
2018-07-03T11:49:59.095Z,64.89
2018-07-03T11:50:59.109Z,64.85
2018-07-03T11:51:59.152Z,64.98
2018-07-03T11:52:59.154Z,64.89
2018-07-03T11:53:59.127Z,64.98
2018-07-03T11:54:59.154Z,64.98
2018-07-03T11:55:59.111Z,64.89
2018-07-03T11:56:59.157Z,64.98
2018-07-03T11:57:59.135Z,65.05
2018-07-03T11:58:59.106Z,65.05
2018-07-03T11:59:59.079Z,65.08
2018-07-03T12:00:59.179Z,65.34
2018-07-03T12:01:59.287Z,65.08
2018-07-03T12:02:59.205Z,65.08
2018-07-03T12:03:59.132Z,65.08
2018-07-03T12:04:59.152Z,65.37
2018-07-03T12:05:59.178Z,65.14
2018-07-03T12:06:59.181Z,65.14
2018-07-03T12:07:59.237Z,65.34
2018-07-03T12:08:59.140Z,65.37
2018-07-03T12:09:59.183Z,65.08
2018-07-03T12:10:59.145Z,65.17
2018-07-03T12:11:59.175Z,65.34
2018-07-03T12:12:59.205Z,65.08
2018-07-03T12:13:59.123Z,65.37
2018-07-03T12:14:59.131Z,65.17
2018-07-03T12:15:59.202Z,65.08
2018-07-03T12:16:59.169Z,65.34
2018-07-03T12:17:59.795Z,65.14
2018-07-03T12:18:59.376Z,65.08
2018-07-03T12:19:59.242Z,65.08
2018-07-03T12:20:59.182Z,65.05
2018-07-03T12:21:59.520Z,65.05
2018-07-03T12:22:59.164Z,65.08
2018-07-03T12:23:59.168Z,64.98
2018-07-03T12:24:59.173Z,65.14
2018-07-03T12:25:59.168Z,65.34
2018-07-03T12:26:59.182Z,65.24
2018-07-03T12:27:59.150Z,65.37
2018-07-03T12:28:59.271Z,65.08
2018-07-03T12:29:59.170Z,65.37
2018-07-03T12:30:59.198Z,65.05
2018-07-03T12:31:59.206Z,65.08
2018-07-03T12:32:59.171Z,65.05
2018-07-03T12:33:59.220Z,65.17
2018-07-03T12:34:59.224Z,65.17
2018-07-03T12:35:59.219Z,65.14
2018-07-03T12:36:59.184Z,65.34
2018-07-03T12:37:59.240Z,65.08
2018-07-03T12:38:59.248Z,65.14
2018-07-03T12:39:59.199Z,65.17
2018-07-03T12:40:59.199Z,65.05
2018-07-03T12:41:59.210Z,65.17
2018-07-03T12:42:59.278Z,65.08
2018-07-03T12:43:59.259Z,65.17
2018-07-03T12:44:59.256Z,65.17
2018-07-03T12:45:59.260Z,65.37
2018-07-03T12:46:59.220Z,65.27
2018-07-03T12:47:59.188Z,65.27
2018-07-03T12:48:59.193Z,65.14
2018-07-03T12:49:59.229Z,65.17
2018-07-03T12:50:59.231Z,65.17
2018-07-03T12:51:59.536Z,65.47
2018-07-03T12:52:59.896Z,65.43
2018-07-03T12:53:59.239Z,65.47
2018-07-03T12:54:59.239Z,65.34
2018-07-03T12:57:19.108Z,65.14
2018-07-03T12:58:19.433Z,65.24
2018-07-03T12:59:19.053Z,65.27
2018-07-03T13:00:19.050Z,65.53
2018-07-03T13:01:19.031Z,65.43
2018-07-03T13:02:19.107Z,65.56
2018-07-03T13:03:19.036Z,65.27